sensor_id;sensor_type;location;lat;lon;timestamp;pressure;altitude;pressure_sealevel;temperature;humidity
39769;BME280;38939;47.824;14.642;2023-08-06T00:00:42;95999.44;;;16.47;99.82
39769;BME280;38939;47.824;14.642;2023-08-06T00:01:44;95995.22;;;16.46;99.95
39769;BME280;38939;47.824;14.642;2023-08-06T00:02:46;95995.75;;;16.43;99.79
39769;BME280;38939;47.824;14.642;2023-08-06T00:03:48;96000.47;;;16.41;100.00
39769;BME280;38939;47.824;14.642;2023-08-06T00:04:50;95994.16;;;16.42;99.96
39769;BME280;38939;47.824;14.642;2023-08-06T00:05:52;95993.09;;;16.43;100.00
39769;BME280;38939;47.824;14.642;2023-08-06T00:06:53;95993.88;;;16.44;100.00
39769;BME280;38939;47.824;14.642;2023-08-06T00:07:55;95988.63;;;16.44;100.00
39769;BME280;38939;47.824;14.642;2023-08-06T00:08:57;95994.69;;;16.44;100.00
39769;BME280;38939;47.824;14.642;2023-08-06T00:09:59;95991.00;;;16.45;100.00
39769;BME280;38939;47.824;14.642;2023-08-06T00:11:01;95998.13;;;16.45;100.00
39769;BME280;38939;47.824;14.642;2023-08-06T00:12:03;95988.38;;;16.45;100.00
39769;BME280;38939;47.824;14.642;2023-08-06T00:13:05;95993.88;;;16.44;99.88
39769;BME280;38939;47.824;14.642;2023-08-06T00:14:07;95999.97;;;16.44;99.81
39769;BME280;38939;47.824;14.642;2023-08-06T00:15:09;95993.88;;;16.44;99.85
39769;BME280;38939;47.824;14.642;2023-08-06T00:16:12;95998.38;;;16.43;100.00
39769;BME280;38939;47.824;14.642;2023-08-06T00:17:14;95999.44;;;16.42;99.94
39769;BME280;38939;47.824;14.642;2023-08-06T00:18:16;95991.53;;;16.42;99.72
39769;BME280;38939;47.824;14.642;2023-08-06T00:19:18;95993.88;;;16.44;100.00
39769;BME280;38939;47.824;14.642;2023-08-06T00:20:20;95994.94;;;16.43;100.00
39769;BME280;38939;47.824;14.642;2023-08-06T00:21:22;95993.34;;;16.42;99.89
39769;BME280;38939;47.824;14.642;2023-08-06T00:22:24;95996.81;;;16.42;100.00
39769;BME280;38939;47.824;14.642;2023-08-06T00:23:25;95989.94;;;16.41;100.00
39769;BME280;38939;47.824;14.642;2023-08-06T00:24:36;95996.25;;;16.40;99.74
39769;BME280;38939;47.824;14.642;2023-08-06T00:25:38;95992.03;;;16.39;99.90
39769;BME280;38939;47.824;14.642;2023-08-06T00:26:40;95989.66;;;16.37;99.95
39769;BME280;38939;47.824;14.642;2023-08-06T00:27:42;95998.63;;;16.36;99.98
39769;BME280;38939;47.824;14.642;2023-08-06T00:28:44;95992.56;;;16.36;100.00
39769;BME280;38939;47.824;14.642;2023-08-06T00:29:45;95989.38;;;16.34;99.81
39769;BME280;38939;47.824;14.642;2023-08-06T00:30:53;95996.25;;;16.35;99.73
39769;BME280;38939;47.824;14.642;2023-08-06T00:31:56;95989.38;;;16.34;100.00
39769;BME280;38939;47.824;14.642;2023-08-06T00:32:57;95986.75;;;16.34;99.91
39769;BME280;38939;47.824;14.642;2023-08-06T00:33:59;95988.88;;;16.32;99.86
39769;BME280;38939;47.824;14.642;2023-08-06T00:35:01;95975.97;;;16.30;99.95
39769;BME280;38939;47.824;14.642;2023-08-06T00:36:03;95977.81;;;16.30;99.63
39769;BME280;38939;47.824;14.642;2023-08-06T00:37:05;95984.13;;;16.29;99.80
39769;BME280;38939;47.824;14.642;2023-08-06T00:38:07;95979.91;;;16.28;99.77
39769;BME280;38939;47.824;14.642;2023-08-06T00:39:09;95976.75;;;16.26;99.64
39769;BME280;38939;47.824;14.642;2023-08-06T00:40:11;95973.88;;;16.22;99.68
39769;BME280;38939;47.824;14.642;2023-08-06T00:41:12;95982.00;;;16.20;99.59
39769;BME280;38939;47.824;14.642;2023-08-06T00:42:14;95981.47;;;16.18;99.46
39769;BME280;38939;47.824;14.642;2023-08-06T00:43:17;95976.47;;;16.17;99.70
39769;BME280;38939;47.824;14.642;2023-08-06T00:44:19;95980.16;;;16.16;99.36
39769;BME280;38939;47.824;14.642;2023-08-06T00:45:21;95982.81;;;16.16;99.73
39769;BME280;38939;47.824;14.642;2023-08-06T00:46:24;95976.72;;;16.15;99.40
39769;BME280;38939;47.824;14.642;2023-08-06T00:47:26;95976.47;;;16.17;99.38
39769;BME280;38939;47.824;14.642;2023-08-06T00:48:28;95979.34;;;16.15;99.35
39769;BME280;38939;47.824;14.642;2023-08-06T00:49:30;95978.31;;;16.16;99.26
39769;BME280;38939;47.824;14.642;2023-08-06T00:50:34;95975.41;;;16.13;99.61
39769;BME280;38939;47.824;14.642;2023-08-06T00:51:36;95976.19;;;16.13;99.39
39769;BME280;38939;47.824;14.642;2023-08-06T00:52:38;95976.19;;;16.13;99.61
39769;BME280;38939;47.824;14.642;2023-08-06T00:53:40;95970.16;;;16.13;99.36
39769;BME280;38939;47.824;14.642;2023-08-06T00:54:42;95973.56;;;16.13;99.42
39769;BME280;38939;47.824;14.642;2023-08-06T00:55:45;95970.94;;;16.13;99.58
39769;BME280;38939;47.824;14.642;2023-08-06T00:56:47;95970.69;;;16.15;99.61
39769;BME280;38939;47.824;14.642;2023-08-06T00:57:49;95970.69;;;16.15;99.47
39769;BME280;38939;47.824;14.642;2023-08-06T00:58:52;95969.91;;;16.14;99.59
39769;BME280;38939;47.824;14.642;2023-08-06T00:59:54;95974.38;;;16.14;99.76
39769;BME280;38939;47.824;14.642;2023-08-06T01:00:56;95971.22;;;16.12;99.66
39769;BME280;38939;47.824;14.642;2023-08-06T01:01:58;95966.97;;;16.11;99.58
39769;BME280;38939;47.824;14.642;2023-08-06T01:03:00;95958.31;;;16.10;99.84
39769;BME280;38939;47.824;14.642;2023-08-06T01:04:02;95964.34;;;16.11;99.48
39769;BME280;38939;47.824;14.642;2023-08-06T01:05:05;95965.13;;;16.11;99.71
39769;BME280;38939;47.824;14.642;2023-08-06T01:06:07;95965.94;;;16.12;99.78
39769;BME280;38939;47.824;14.642;2023-08-06T01:08:40;95972.78;;;16.13;99.75
39769;BME280;38939;47.824;14.642;2023-08-06T01:09:50;95966.72;;;16.12;99.34
39769;BME280;38939;47.824;14.642;2023-08-06T01:13:41;95965.41;;;16.15;99.29
39769;BME280;38939;47.824;14.642;2023-08-06T01:14:53;95964.63;;;16.14;99.40
39769;BME280;38939;47.824;14.642;2023-08-06T01:15:58;95960.16;;;16.15;99.41
39769;BME280;38939;47.824;14.642;2023-08-06T01:17:03;95969.91;;;16.14;99.17
39769;BME280;38939;47.824;14.642;2023-08-06T01:18:06;95962.53;;;16.16;99.07
39769;BME280;38939;47.824;14.642;2023-08-06T01:19:17;95951.22;;;16.16;99.21
39769;BME280;38939;47.824;14.642;2023-08-06T01:20:19;95959.13;;;16.16;99.02
39769;BME280;38939;47.824;14.642;2023-08-06T01:21:21;95962.53;;;16.16;99.09
39769;BME280;38939;47.824;14.642;2023-08-06T01:22:23;95965.16;;;16.16;99.02
39769;BME280;38939;47.824;14.642;2023-08-06T01:23:25;95958.06;;;16.17;99.12
39769;BME280;38939;47.824;14.642;2023-08-06T01:24:27;95972.28;;;16.16;99.28
39769;BME280;38939;47.824;14.642;2023-08-06T01:25:40;95963.03;;;16.13;99.12
39769;BME280;38939;47.824;14.642;2023-08-06T01:27:09;95968.84;;;16.10;99.04
39769;BME280;38939;47.824;14.642;2023-08-06T01:28:14;95964.31;;;16.06;99.23
39769;BME280;38939;47.824;14.642;2023-08-06T01:29:19;95957.75;;;16.03;99.33
39769;BME280;38939;47.824;14.642;2023-08-06T01:30:24;95964.59;;;16.04;99.39
39769;BME280;38939;47.824;14.642;2023-08-06T01:31:30;95953.00;;;16.05;99.44
39769;BME280;38939;47.824;14.642;2023-08-06T01:32:34;95950.38;;;16.05;99.65
39769;BME280;38939;47.824;14.642;2023-08-06T01:33:37;95955.66;;;16.05;99.70
39769;BME280;38939;47.824;14.642;2023-08-06T01:34:43;95952.22;;;16.05;99.84
39769;BME280;38939;47.824;14.642;2023-08-06T01:35:45;95949.59;;;16.05;99.88
39769;BME280;38939;47.824;14.642;2023-08-06T01:36:47;95951.16;;;16.06;99.88
39769;BME280;38939;47.824;14.642;2023-08-06T01:37:50;95951.16;;;16.06;99.87
39769;BME280;38939;47.824;14.642;2023-08-06T01:38:53;95950.91;;;16.07;99.46
39769;BME280;38939;47.824;14.642;2023-08-06T01:39:55;95952.50;;;16.08;99.55
39769;BME280;38939;47.824;14.642;2023-08-06T01:40:57;95952.25;;;16.10;99.74
39769;BME280;38939;47.824;14.642;2023-08-06T01:41:59;95938.28;;;16.09;99.63
39769;BME280;38939;47.824;14.642;2023-08-06T01:43:01;95943.28;;;16.11;99.84
39769;BME280;38939;47.824;14.642;2023-08-06T01:44:03;95941.44;;;16.11;99.69
39769;BME280;38939;47.824;14.642;2023-08-06T01:45:05;95934.63;;;16.10;99.54
39769;BME280;38939;47.824;14.642;2023-08-06T01:46:07;95930.91;;;16.11;99.54
39769;BME280;38939;47.824;14.642;2023-08-06T01:47:09;95934.38;;;16.12;99.81
39769;BME280;38939;47.824;14.642;2023-08-06T01:48:11;95935.94;;;16.13;99.64
39769;BME280;38939;47.824;14.642;2023-08-06T01:49:13;95938.81;;;16.11;99.48
39769;BME280;38939;47.824;14.642;2023-08-06T01:50:15;95940.91;;;16.09;99.65
39769;BME280;38939;47.824;14.642;2023-08-06T01:51:17;95935.66;;;16.09;99.99
39769;BME280;38939;47.824;14.642;2023-08-06T01:52:19;95938.81;;;16.11;100.00
39769;BME280;38939;47.824;14.642;2023-08-06T01:53:20;95932.53;;;16.12;99.93
39769;BME280;38939;47.824;14.642;2023-08-06T01:54:22;95942.78;;;16.14;100.00
39769;BME280;38939;47.824;14.642;2023-08-06T01:55:24;95937.53;;;16.14;100.00
39769;BME280;38939;47.824;14.642;2023-08-06T01:56:26;95943.56;;;16.14;99.94
39769;BME280;38939;47.824;14.642;2023-08-06T01:57:28;95939.88;;;16.15;100.00
39769;BME280;38939;47.824;14.642;2023-08-06T01:58:30;95939.88;;;16.15;99.87
39769;BME280;38939;47.824;14.642;2023-08-06T01:59:32;95936.22;;;16.16;100.00
39769;BME280;38939;47.824;14.642;2023-08-06T02:00:33;95934.63;;;16.15;99.78
39769;BME280;38939;47.824;14.642;2023-08-06T02:01:35;95931.97;;;16.15;99.84
39769;BME280;38939;47.824;14.642;2023-08-06T02:02:37;95930.41;;;16.14;99.86
39769;BME280;38939;47.824;14.642;2023-08-06T02:03:39;95929.34;;;16.15;99.89
39769;BME280;38939;47.824;14.642;2023-08-06T02:04:41;95932.78;;;16.16;99.78
39769;BME280;38939;47.824;14.642;2023-08-06T02:05:43;95921.44;;;16.15;99.69
39769;BME280;38939;47.824;14.642;2023-08-06T02:06:45;95923.56;;;16.13;99.54
39769;BME280;38939;47.824;14.642;2023-08-06T02:07:47;95920.16;;;16.13;99.47
39769;BME280;38939;47.824;14.642;2023-08-06T02:08:49;95915.13;;;16.11;99.54
39769;BME280;38939;47.824;14.642;2023-08-06T02:09:51;95920.41;;;16.11;99.57
39769;BME280;38939;47.824;14.642;2023-08-06T02:10:53;95917.50;;;16.13;99.43
39769;BME280;38939;47.824;14.642;2023-08-06T02:11:55;95919.09;;;16.14;99.63
39769;BME280;38939;47.824;14.642;2023-08-06T02:12:57;95911.22;;;16.14;99.66
39769;BME280;38939;47.824;14.642;2023-08-06T02:13:59;95912.78;;;16.15;99.64
39769;BME280;38939;47.824;14.642;2023-08-06T02:15:01;95914.38;;;16.16;99.71
39769;BME280;38939;47.824;14.642;2023-08-06T02:16:03;95916.72;;;16.17;99.86
39769;BME280;38939;47.824;14.642;2023-08-06T02:17:05;95912.25;;;16.18;99.84
39769;BME280;38939;47.824;14.642;2023-08-06T02:18:07;95919.63;;;16.16;100.00
39769;BME280;38939;47.824;14.642;2023-08-06T02:19:09;95913.56;;;16.15;100.00
39769;BME280;38939;47.824;14.642;2023-08-06T02:20:11;95921.44;;;16.15;99.65
39769;BME280;38939;47.824;14.642;2023-08-06T02:21:13;95910.16;;;16.15;99.74
39769;BME280;38939;47.824;14.642;2023-08-06T02:22:15;95917.00;;;16.16;99.67
39769;BME280;38939;47.824;14.642;2023-08-06T02:23:17;95912.53;;;16.16;99.70
39769;BME280;38939;47.824;14.642;2023-08-06T02:24:18;95920.41;;;16.16;99.90
39769;BME280;38939;47.824;14.642;2023-08-06T02:25:20;95909.09;;;16.16;99.69
39769;BME280;38939;47.824;14.642;2023-08-06T02:26:22;95913.31;;;16.17;99.65
39769;BME280;38939;47.824;14.642;2023-08-06T02:27:24;95903.84;;;16.16;99.65
39769;BME280;38939;47.824;14.642;2023-08-06T02:28:25;95909.88;;;16.16;99.86
39769;BME280;38939;47.824;14.642;2023-08-06T02:29:27;95906.19;;;16.17;99.78
39769;BME280;38939;47.824;14.642;2023-08-06T02:30:29;95907.00;;;16.18;99.54
39769;BME280;38939;47.824;14.642;2023-08-06T02:31:32;95913.84;;;16.19;99.47
39769;BME280;38939;47.824;14.642;2023-08-06T02:32:34;95904.09;;;16.19;99.48
39769;BME280;38939;47.824;14.642;2023-08-06T02:33:37;95896.19;;;16.19;99.45
39769;BME280;38939;47.824;14.642;2023-08-06T02:34:39;95887.50;;;16.19;99.50
39769;BME280;38939;47.824;14.642;2023-08-06T02:35:40;95891.75;;;16.20;99.43
39769;BME280;38939;47.824;14.642;2023-08-06T02:36:43;95896.19;;;16.19;99.60
39769;BME280;38939;47.824;14.642;2023-08-06T02:37:45;95903.84;;;16.16;99.32
39769;BME280;38939;47.824;14.642;2023-08-06T02:38:47;95902.78;;;16.17;99.35
39769;BME280;38939;47.824;14.642;2023-08-06T02:39:49;95907.25;;;16.16;99.29
39769;BME280;38939;47.824;14.642;2023-08-06T02:40:51;95909.63;;;16.18;99.56
39769;BME280;38939;47.824;14.642;2023-08-06T02:41:53;95901.75;;;16.18;99.69
39769;BME280;38939;47.824;14.642;2023-08-06T02:42:56;95900.13;;;16.17;99.39
39769;BME280;38939;47.824;14.642;2023-08-06T02:43:57;95903.84;;;16.16;99.65
39769;BME280;38939;47.824;14.642;2023-08-06T02:44:59;95905.66;;;16.15;99.83
39769;BME280;38939;47.824;14.642;2023-08-06T02:46:01;95907.75;;;16.13;99.97
39769;BME280;38939;47.824;14.642;2023-08-06T02:47:04;95899.88;;;16.13;99.69
39769;BME280;38939;47.824;14.642;2023-08-06T02:48:06;95895.69;;;16.12;99.46
39769;BME280;38939;47.824;14.642;2023-08-06T02:49:08;95902.78;;;16.12;99.65
39769;BME280;38939;47.824;14.642;2023-08-06T02:50:09;95900.94;;;16.12;99.67
39769;BME280;38939;47.824;14.642;2023-08-06T02:51:11;95897.78;;;16.10;99.51
39769;BME280;38939;47.824;14.642;2023-08-06T02:52:13;95896.19;;;16.09;99.46
39769;BME280;38939;47.824;14.642;2023-08-06T02:53:15;95895.91;;;16.06;99.61
39769;BME280;38939;47.824;14.642;2023-08-06T02:54:18;95888.81;;;16.06;99.75
39769;BME280;38939;47.824;14.642;2023-08-06T02:55:20;95899.06;;;16.08;99.73
39769;BME280;38939;47.824;14.642;2023-08-06T02:56:22;95897.50;;;16.07;99.77
39769;BME280;38939;47.824;14.642;2023-08-06T02:57:24;95898.53;;;16.06;99.46
39769;BME280;38939;47.824;14.642;2023-08-06T02:58:25;95892.50;;;16.05;99.63
39769;BME280;38939;47.824;14.642;2023-08-06T02:59:27;95894.09;;;16.06;99.56
39769;BME280;38939;47.824;14.642;2023-08-06T03:00:29;95894.09;;;16.06;99.68
39769;BME280;38939;47.824;14.642;2023-08-06T03:01:32;95893.81;;;16.03;99.64
39769;BME280;38939;47.824;14.642;2023-08-06T03:02:35;95891.97;;;16.03;99.50
39769;BME280;38939;47.824;14.642;2023-08-06T03:03:37;95894.06;;;16.01;99.75
39769;BME280;38939;47.824;14.642;2023-08-06T03:04:39;95885.13;;;15.97;99.80
39769;BME280;38939;47.824;14.642;2023-08-06T03:05:40;95883.56;;;15.96;99.94
39769;BME280;38939;47.824;14.642;2023-08-06T03:06:42;95888.81;;;15.96;99.65
39769;BME280;38939;47.824;14.642;2023-08-06T03:07:44;95887.22;;;15.95;99.63
39769;BME280;38939;47.824;14.642;2023-08-06T03:08:46;95881.97;;;15.95;99.62
39769;BME280;38939;47.824;14.642;2023-08-06T03:09:48;95880.91;;;15.96;99.91
39769;BME280;38939;47.824;14.642;2023-08-06T03:10:50;95884.34;;;15.96;99.74
39769;BME280;38939;47.824;14.642;2023-08-06T03:11:52;95881.97;;;15.95;99.53
39769;BME280;38939;47.824;14.642;2023-08-06T03:12:54;95889.84;;;15.90;99.44
39769;BME280;38939;47.824;14.642;2023-08-06T03:13:56;95885.38;;;15.90;99.60
39769;BME280;38939;47.824;14.642;2023-08-06T03:14:58;95896.44;;;15.92;99.51
39769;BME280;38939;47.824;14.642;2023-08-06T03:15:59;95898.28;;;15.92;99.73
39769;BME280;38939;47.824;14.642;2023-08-06T03:17:02;95897.47;;;15.91;99.54
39769;BME280;38939;47.824;14.642;2023-08-06T03:18:04;95894.84;;;15.91;99.86
39769;BME280;38939;47.824;14.642;2023-08-06T03:19:07;95890.91;;;15.94;99.67
39769;BME280;38939;47.824;14.642;2023-08-06T03:20:09;95891.94;;;15.93;99.65
39769;BME280;38939;47.824;14.642;2023-08-06T03:21:11;95908.53;;;15.93;99.87
39769;BME280;38939;47.824;14.642;2023-08-06T03:22:13;95905.88;;;15.93;99.63
39769;BME280;38939;47.824;14.642;2023-08-06T03:23:15;95890.09;;;15.93;99.89
39769;BME280;38939;47.824;14.642;2023-08-06T03:24:17;95895.38;;;15.93;99.81
39769;BME280;38939;47.824;14.642;2023-08-06T03:25:19;95901.44;;;15.94;99.88
39769;BME280;38939;47.824;14.642;2023-08-06T03:26:20;95907.47;;;15.94;99.65
39769;BME280;38939;47.824;14.642;2023-08-06T03:27:22;95906.41;;;15.95;99.93
39769;BME280;38939;47.824;14.642;2023-08-06T03:28:24;95906.97;;;15.92;99.82
39769;BME280;38939;47.824;14.642;2023-08-06T03:29:26;95905.34;;;15.91;100.00
39769;BME280;38939;47.824;14.642;2023-08-06T03:30:28;95901.69;;;15.92;100.00
39769;BME280;38939;47.824;14.642;2023-08-06T03:31:30;95903.53;;;15.92;100.00
39769;BME280;38939;47.824;14.642;2023-08-06T03:32:32;95896.69;;;15.91;100.00
39769;BME280;38939;47.824;14.642;2023-08-06T03:33:33;95893.53;;;15.89;100.00
39769;BME280;38939;47.824;14.642;2023-08-06T03:34:35;95881.97;;;15.90;100.00
39769;BME280;38939;47.824;14.642;2023-08-06T03:35:37;95883.00;;;15.89;100.00
39769;BME280;38939;47.824;14.642;2023-08-06T03:36:39;95892.50;;;15.90;100.00
39769;BME280;38939;47.824;14.642;2023-08-06T03:37:41;95893.53;;;15.89;100.00
39769;BME280;38939;47.824;14.642;2023-08-06T03:38:42;95895.88;;;15.85;100.00
39769;BME280;38939;47.824;14.642;2023-08-06T03:39:44;95893.53;;;15.84;100.00
39769;BME280;38939;47.824;14.642;2023-08-06T03:40:46;95901.94;;;15.80;100.00
39769;BME280;38939;47.824;14.642;2023-08-06T03:41:48;95886.09;;;15.70;100.00
39769;BME280;38939;47.824;14.642;2023-08-06T03:42:50;95896.59;;;15.70;100.00
39769;BME280;38939;47.824;14.642;2023-08-06T03:43:52;95883.22;;;15.72;100.00
39769;BME280;38939;47.824;14.642;2023-08-06T03:44:54;95882.19;;;15.73;100.00
39769;BME280;38939;47.824;14.642;2023-08-06T03:45:56;95885.34;;;15.75;100.00
39769;BME280;38939;47.824;14.642;2023-08-06T03:46:57;95875.34;;;15.77;100.00
39769;BME280;38939;47.824;14.642;2023-08-06T03:47:59;95868.53;;;15.76;100.00
39769;BME280;38939;47.824;14.642;2023-08-06T03:49:01;95879.28;;;15.74;100.00
39769;BME280;38939;47.824;14.642;2023-08-06T03:50:03;95882.41;;;15.71;100.00
39769;BME280;38939;47.824;14.642;2023-08-06T03:51:05;95879.25;;;15.69;100.00
39769;BME280;38939;47.824;14.642;2023-08-06T03:52:07;95869.78;;;15.68;100.00
39769;BME280;38939;47.824;14.642;2023-08-06T03:53:09;95881.63;;;15.71;100.00
39769;BME280;38939;47.824;14.642;2023-08-06T03:54:10;95886.41;;;15.74;100.00
39769;BME280;38939;47.824;14.642;2023-08-06T03:55:12;95883.53;;;15.75;100.00
39769;BME280;38939;47.824;14.642;2023-08-06T03:56:14;95880.34;;;15.78;100.00
39769;BME280;38939;47.824;14.642;2023-08-06T03:57:16;95881.94;;;15.79;100.00
39769;BME280;38939;47.824;14.642;2023-08-06T03:58:18;95886.94;;;15.81;100.00
39769;BME280;38939;47.824;14.642;2023-08-06T03:59:20;95888.53;;;15.82;100.00
39769;BME280;38939;47.824;14.642;2023-08-06T04:00:22;95873.53;;;15.83;100.00
39769;BME280;38939;47.824;14.642;2023-08-06T04:01:24;95879.31;;;15.85;100.00
39769;BME280;38939;47.824;14.642;2023-08-06T04:02:26;95879.31;;;15.85;100.00
39769;BME280;38939;47.824;14.642;2023-08-06T04:03:27;95884.03;;;15.83;100.00
39769;BME280;38939;47.824;14.642;2023-08-06T04:04:29;95886.41;;;15.84;100.00
39769;BME280;38939;47.824;14.642;2023-08-06T04:05:31;95891.69;;;15.84;100.00
39769;BME280;38939;47.824;14.642;2023-08-06T04:06:34;95896.94;;;15.84;99.94
39769;BME280;38939;47.824;14.642;2023-08-06T04:07:36;95894.84;;;15.86;100.00
39769;BME280;38939;47.824;14.642;2023-08-06T04:08:38;95896.69;;;15.86;100.00
39769;BME280;38939;47.824;14.642;2023-08-06T04:09:56;95889.59;;;15.86;100.00
39769;BME280;38939;47.824;14.642;2023-08-06T04:10:58;95888.50;;;15.87;100.00
39769;BME280;38939;47.824;14.642;2023-08-06T04:11:59;95886.69;;;15.88;100.00
39769;BME280;38939;47.824;14.642;2023-08-06T04:13:03;95881.16;;;15.89;100.00
39769;BME280;38939;47.824;14.642;2023-08-06T04:14:05;95885.63;;;15.89;100.00
39769;BME280;38939;47.824;14.642;2023-08-06T04:15:06;95880.38;;;15.89;100.00
39769;BME280;38939;47.824;14.642;2023-08-06T04:16:09;95882.22;;;15.88;100.00
39769;BME280;38939;47.824;14.642;2023-08-06T04:17:11;95877.47;;;15.85;100.00
39769;BME280;38939;47.824;14.642;2023-08-06T04:18:13;95878.53;;;15.84;100.00
39769;BME280;38939;47.824;14.642;2023-08-06T04:19:15;95884.03;;;15.83;99.97
39769;BME280;38939;47.824;14.642;2023-08-06T04:20:17;95887.75;;;15.82;99.81
39769;BME280;38939;47.824;14.642;2023-08-06T04:21:18;95880.88;;;15.80;100.00
39769;BME280;38939;47.824;14.642;2023-08-06T04:22:21;95875.63;;;15.80;100.00
39769;BME280;38939;47.824;14.642;2023-08-06T04:23:23;95869.31;;;15.82;100.00
39769;BME280;38939;47.824;14.642;2023-08-06T04:24:26;95875.38;;;15.82;99.71
39769;BME280;38939;47.824;14.642;2023-08-06T04:25:28;95874.03;;;15.85;99.81
39769;BME280;38939;47.824;14.642;2023-08-06T04:26:30;95873.00;;;15.86;99.54
39769;BME280;38939;47.824;14.642;2023-08-06T04:27:32;95874.84;;;15.85;99.80
39769;BME280;38939;47.824;14.642;2023-08-06T04:28:34;95877.22;;;15.87;99.59
39769;BME280;38939;47.824;14.642;2023-08-06T04:29:35;95876.97;;;15.88;99.54
39769;BME280;38939;47.824;14.642;2023-08-06T04:30:37;95894.84;;;15.86;99.41
39769;BME280;38939;47.824;14.642;2023-08-06T04:31:39;95892.22;;;15.86;99.48
39769;BME280;38939;47.824;14.642;2023-08-06T04:32:41;95898.50;;;15.85;99.55
39769;BME280;38939;47.824;14.642;2023-08-06T04:33:43;95894.31;;;15.84;99.53
39769;BME280;38939;47.824;14.642;2023-08-06T04:34:45;95887.97;;;15.85;99.69
39769;BME280;38939;47.824;14.642;2023-08-06T04:35:53;95892.47;;;15.85;99.67
39769;BME280;38939;47.824;14.642;2023-08-06T04:36:55;95894.84;;;15.86;99.49
39769;BME280;38939;47.824;14.642;2023-08-06T04:37:57;95899.81;;;15.83;99.40
39769;BME280;38939;47.824;14.642;2023-08-06T04:38:59;95893.00;;;15.82;99.41
39769;BME280;38939;47.824;14.642;2023-08-06T04:40:01;95881.94;;;15.79;99.48
39769;BME280;38939;47.824;14.642;2023-08-06T04:41:03;95883.50;;;15.80;99.32
39769;BME280;38939;47.824;14.642;2023-08-06T04:42:07;95894.03;;;15.80;99.40
39769;BME280;38939;47.824;14.642;2023-08-06T04:43:09;95900.34;;;15.79;99.09
39769;BME280;38939;47.824;14.642;2023-08-06T04:44:14;95893.25;;;15.80;99.38
39769;BME280;38939;47.824;14.642;2023-08-06T04:45:15;95894.03;;;15.80;99.50
39769;BME280;38939;47.824;14.642;2023-08-06T04:46:17;95895.34;;;15.78;99.25
39769;BME280;38939;47.824;14.642;2023-08-06T04:47:19;95901.66;;;15.77;99.15
39769;BME280;38939;47.824;14.642;2023-08-06T04:48:21;95899.84;;;15.77;99.24
39769;BME280;38939;47.824;14.642;2023-08-06T04:49:24;95900.34;;;15.79;99.21
39769;BME280;38939;47.824;14.642;2023-08-06T04:50:26;95902.47;;;15.77;99.17
39769;BME280;38939;47.824;14.642;2023-08-06T04:51:28;95902.19;;;15.79;99.06
39769;BME280;38939;47.824;14.642;2023-08-06T04:52:30;95899.56;;;15.79;98.86
39769;BME280;38939;47.824;14.642;2023-08-06T04:53:33;95905.09;;;15.77;98.97
39769;BME280;38939;47.824;14.642;2023-08-06T04:54:35;95901.66;;;15.77;98.95
39769;BME280;38939;47.824;14.642;2023-08-06T04:55:37;95903.50;;;15.76;98.94
39769;BME280;38939;47.824;14.642;2023-08-06T04:56:39;95909.50;;;15.72;99.15
39769;BME280;38939;47.824;14.642;2023-08-06T04:57:41;95917.38;;;15.67;99.22
39769;BME280;38939;47.824;14.642;2023-08-06T04:58:42;95924.72;;;15.65;99.39
39769;BME280;38939;47.824;14.642;2023-08-06T04:59:44;95920.25;;;15.65;99.55
39769;BME280;38939;47.824;14.642;2023-08-06T05:00:46;95912.38;;;15.65;99.23
39769;BME280;38939;47.824;14.642;2023-08-06T05:01:48;95921.84;;;15.66;99.44
39769;BME280;38939;47.824;14.642;2023-08-06T05:02:50;95931.31;;;15.62;99.00
39769;BME280;38939;47.824;14.642;2023-08-06T05:03:52;95927.88;;;15.62;99.06
39769;BME280;38939;47.824;14.642;2023-08-06T05:04:54;95935.78;;;15.62;99.27
39769;BME280;38939;47.824;14.642;2023-08-06T05:05:56;95929.72;;;15.61;99.13
39769;BME280;38939;47.824;14.642;2023-08-06T05:06:58;95933.41;;;15.60;99.26
39769;BME280;38939;47.824;14.642;2023-08-06T05:08:00;95920.50;;;15.58;99.06
39769;BME280;38939;47.824;14.642;2023-08-06T05:09:02;95931.53;;;15.55;98.18
39769;BME280;38939;47.824;14.642;2023-08-06T05:10:04;95928.38;;;15.53;98.05
39769;BME280;38939;47.824;14.642;2023-08-06T05:11:06;95928.09;;;15.55;97.96
39769;BME280;38939;47.824;14.642;2023-08-06T05:12:08;95918.66;;;15.54;97.61
39769;BME280;38939;47.824;14.642;2023-08-06T05:13:10;95921.75;;;15.40;96.80
39769;BME280;38939;47.824;14.642;2023-08-06T05:14:12;95925.97;;;15.42;96.59
39769;BME280;38939;47.824;14.642;2023-08-06T05:15:14;95930.16;;;15.37;96.26
39769;BME280;38939;47.824;14.642;2023-08-06T05:16:16;95930.66;;;15.34;95.93
39769;BME280;38939;47.824;14.642;2023-08-06T05:17:18;95927.78;;;15.36;96.05
39769;BME280;38939;47.824;14.642;2023-08-06T05:18:20;95940.91;;;15.36;96.74
39769;BME280;38939;47.824;14.642;2023-08-06T05:19:22;95931.19;;;15.36;96.87
39769;BME280;38939;47.824;14.642;2023-08-06T05:20:23;95917.78;;;15.38;96.78
39769;BME280;38939;47.824;14.642;2023-08-06T05:21:25;95920.69;;;15.36;96.80
39769;BME280;38939;47.824;14.642;2023-08-06T05:22:27;95932.25;;;15.35;96.56
39769;BME280;38939;47.824;14.642;2023-08-06T05:23:29;95938.28;;;15.36;96.83
39769;BME280;38939;47.824;14.642;2023-08-06T05:24:31;95932.25;;;15.35;96.81
39769;BME280;38939;47.824;14.642;2023-08-06T05:25:36;95938.03;;;15.37;96.69
39769;BME280;38939;47.824;14.642;2023-08-06T05:26:38;95938.28;;;15.36;96.79
39769;BME280;38939;47.824;14.642;2023-08-06T05:27:40;95935.66;;;15.36;97.02
39769;BME280;38939;47.824;14.642;2023-08-06T05:28:42;95930.16;;;15.37;96.99
39769;BME280;38939;47.824;14.642;2023-08-06T05:29:44;95939.84;;;15.37;96.81